createdAt,value
2022-12-03T00:00:13.142Z,21.70
2022-12-03T00:00:25.333Z,21.50
2022-12-03T00:00:37.165Z,21.90
2022-12-03T00:00:49.101Z,21.27
2022-12-03T00:01:00.931Z,20.65
2022-12-03T00:01:13.772Z,19.95
2022-12-03T00:01:25.525Z,20.70
2022-12-03T00:01:37.357Z,18.83
2022-12-03T00:01:49.254Z,19.45
2022-12-03T00:02:01.088Z,19.10
2022-12-03T00:02:14.002Z,20.23
2022-12-03T00:02:26.026Z,19.33
2022-12-03T00:02:38.007Z,18.98
2022-12-03T00:02:50.021Z,18.25
2022-12-03T00:03:01.947Z,18.26
2022-12-03T00:03:14.000Z,18.67
2022-12-03T00:03:26.116Z,19.27
2022-12-03T00:03:38.306Z,19.80
2022-12-03T00:03:50.340Z,20.08
2022-12-03T00:04:02.472Z,19.00
2022-12-03T00:04:14.387Z,18.63
2022-12-03T00:04:26.230Z,18.38
2022-12-03T00:04:38.151Z,17.42
2022-12-03T00:04:50.140Z,17.33
2022-12-03T00:05:02.046Z,18.05
2022-12-03T00:05:13.803Z,18.75
2022-12-03T00:05:25.657Z,17.27
2022-12-03T00:05:37.504Z,17.85
2022-12-03T00:05:49.505Z,19.13
2022-12-03T00:06:01.403Z,19.15
2022-12-03T00:06:13.139Z,18.30
2022-12-03T00:06:25.683Z,18.23
2022-12-03T00:06:38.953Z,19.08
2022-12-03T00:06:51.184Z,17.92
2022-12-03T00:07:03.469Z,17.85
2022-12-03T00:07:15.321Z,17.77
2022-12-03T00:07:27.171Z,16.90
2022-12-03T00:07:39.031Z,18.38
2022-12-03T00:07:50.923Z,19.15
2022-12-03T00:08:02.825Z,18.25
2022-12-03T00:08:14.770Z,18.13
2022-12-03T00:08:26.705Z,19.13
2022-12-03T00:08:38.581Z,20.73
2022-12-03T00:08:50.364Z,20.48
2022-12-03T00:09:02.477Z,20.23
2022-12-03T00:09:14.301Z,19.25
2022-12-03T00:09:26.017Z,18.52
2022-12-03T00:09:37.759Z,16.73
2022-12-03T00:09:49.521Z,16.35
2022-12-03T00:10:01.326Z,16.85
2022-12-03T00:10:13.161Z,17.15
2022-12-03T00:10:24.886Z,16.15
2022-12-03T00:10:36.737Z,17.88
2022-12-03T00:10:48.521Z,17.30
2022-12-03T00:11:00.346Z,17.73
2022-12-03T00:11:12.171Z,19.25
2022-12-03T00:11:24.014Z,20.05
2022-12-03T00:11:35.825Z,18.10
2022-12-03T00:11:47.790Z,17.23
2022-12-03T00:11:59.656Z,17.42
2022-12-03T00:12:11.482Z,18.27
2022-12-03T00:12:23.289Z,18.52
2022-12-03T00:12:35.148Z,18.25
2022-12-03T00:12:47.038Z,17.38
2022-12-03T00:12:58.822Z,17.52
2022-12-03T00:13:10.686Z,17.17
2022-12-03T00:13:22.467Z,16.95
2022-12-03T00:13:34.724Z,17.55
2022-12-03T00:13:46.612Z,19.00
2022-12-03T00:13:58.479Z,19.50
2022-12-03T00:14:10.313Z,19.38
2022-12-03T00:14:22.132Z,19.60
2022-12-03T00:14:34.521Z,18.88
2022-12-03T00:14:46.369Z,18.05
2022-12-03T00:14:58.436Z,17.65
2022-12-03T00:15:11.040Z,17.02
2022-12-03T00:15:22.804Z,16.52
2022-12-03T00:15:34.768Z,16.73
2022-12-03T00:15:46.645Z,17.20
2022-12-03T00:15:58.629Z,19.48
2022-12-03T00:16:10.514Z,19.35
2022-12-03T00:16:22.361Z,19.17
2022-12-03T00:16:34.247Z,18.55
2022-12-03T00:16:46.539Z,19.02
2022-12-03T00:16:58.336Z,19.25
2022-12-03T00:17:10.143Z,18.00
2022-12-03T00:17:22.047Z,17.92
2022-12-03T00:17:33.922Z,18.10
2022-12-03T00:17:45.657Z,18.83
2022-12-03T00:17:57.706Z,18.38
2022-12-03T00:18:09.516Z,18.40
2022-12-03T00:18:21.266Z,18.00
2022-12-03T00:18:33.014Z,17.83
2022-12-03T00:18:44.820Z,17.38
2022-12-03T00:18:57.054Z,17.02
2022-12-03T00:19:08.908Z,17.73
2022-12-03T00:19:20.730Z,18.18
2022-12-03T00:19:32.562Z,15.82
2022-12-03T00:19:44.337Z,16.08
2022-12-03T00:19:56.175Z,16.20
2022-12-03T00:20:08.872Z,16.48
2022-12-03T00:20:23.170Z,14.88
2022-12-03T00:20:34.930Z,14.80
2022-12-03T00:20:46.786Z,15.40
2022-12-03T00:20:58.582Z,17.17
2022-12-03T00:21:10.424Z,16.65
2022-12-03T00:21:24.448Z,16.17
2022-12-03T00:21:36.632Z,15.57
2022-12-03T00:21:48.349Z,14.88
2022-12-03T00:22:00.167Z,15.93
2022-12-03T00:22:12.933Z,15.23
2022-12-03T00:22:24.817Z,15.10
2022-12-03T00:22:36.631Z,14.80
2022-12-03T00:22:48.605Z,15.55
2022-12-03T00:23:00.367Z,15.50
2022-12-03T00:23:12.116Z,16.20
2022-12-03T00:23:23.902Z,15.35
2022-12-03T00:23:41.566Z,16.80
2022-12-03T00:23:53.987Z,17.95
2022-12-03T00:24:06.194Z,16.08
2022-12-03T00:24:18.071Z,16.35
2022-12-03T00:24:29.949Z,17.33
2022-12-03T00:24:41.749Z,17.88
2022-12-03T00:24:53.831Z,17.70
2022-12-03T00:25:06.731Z,17.50
2022-12-03T00:25:18.580Z,16.75
2022-12-03T00:25:30.534Z,16.23
2022-12-03T00:25:42.354Z,16.17
2022-12-03T00:25:54.123Z,15.98
2022-12-03T00:26:06.045Z,14.68
2022-12-03T00:26:17.809Z,14.48
2022-12-03T00:26:29.629Z,16.50
2022-12-03T00:26:41.502Z,16.40
2022-12-03T00:26:53.248Z,17.23
2022-12-03T00:27:05.079Z,18.15
2022-12-03T00:27:16.944Z,18.00
2022-12-03T00:27:28.690Z,16.90
2022-12-03T00:27:40.489Z,16.70
2022-12-03T00:27:52.225Z,18.38
2022-12-03T00:28:04.313Z,16.17
2022-12-03T00:28:16.102Z,16.85
2022-12-03T00:28:27.847Z,16.73
2022-12-03T00:28:39.605Z,17.35
2022-12-03T00:28:51.775Z,16.80
2022-12-03T00:29:03.893Z,16.10
2022-12-03T00:29:15.756Z,15.88
2022-12-03T00:29:27.499Z,15.35
2022-12-03T00:29:39.294Z,15.10
2022-12-03T00:29:51.069Z,15.70
2022-12-03T00:30:03.034Z,15.27
2022-12-03T00:30:14.989Z,15.23
2022-12-03T00:30:26.813Z,15.57
2022-12-03T00:30:38.604Z,16.08
2022-12-03T00:30:53.851Z,16.08
2022-12-03T00:31:05.904Z,15.85
2022-12-03T00:31:18.628Z,17.13
2022-12-03T00:31:30.523Z,17.77
2022-12-03T00:31:43.291Z,18.88
2022-12-03T00:31:55.224Z,17.38
2022-12-03T00:32:07.011Z,15.35
2022-12-03T00:32:18.895Z,14.85
2022-12-03T00:32:30.707Z,15.75
2022-12-03T00:32:42.533Z,16.63
2022-12-03T00:32:54.307Z,16.25
2022-12-03T00:33:06.103Z,15.70
2022-12-03T00:33:17.938Z,15.63
2022-12-03T00:33:29.840Z,15.48
2022-12-03T00:33:41.632Z,15.18
2022-12-03T00:33:53.455Z,14.40
2022-12-03T00:34:05.262Z,14.43
2022-12-03T00:34:17.071Z,13.63
2022-12-03T00:34:29.191Z,15.43
2022-12-03T00:34:40.983Z,16.48
2022-12-03T00:34:53.174Z,15.75
2022-12-03T00:35:05.635Z,16.60
2022-12-03T00:35:17.612Z,16.38
2022-12-03T00:35:29.366Z,14.15
2022-12-03T00:35:41.101Z,14.63
2022-12-03T00:35:52.872Z,15.48
2022-12-03T00:36:05.105Z,16.73
2022-12-03T00:36:17.074Z,14.98
2022-12-03T00:36:28.935Z,14.70
2022-12-03T00:36:40.797Z,14.98
2022-12-03T00:36:52.570Z,15.68
2022-12-03T00:37:04.361Z,16.55
2022-12-03T00:37:16.147Z,16.63
2022-12-03T00:37:28.000Z,16.25
2022-12-03T00:37:39.821Z,15.50
2022-12-03T00:37:51.638Z,16.23
2022-12-03T00:38:03.420Z,16.20
2022-12-03T00:38:15.368Z,15.75
2022-12-03T00:38:27.103Z,15.55
2022-12-03T00:38:39.000Z,15.05
2022-12-03T00:38:50.848Z,15.05
2022-12-03T00:39:02.820Z,14.98
2022-12-03T00:39:14.957Z,15.15
2022-12-03T00:39:26.746Z,14.27
2022-12-03T00:39:38.506Z,16.52
2022-12-03T00:39:50.497Z,16.77
2022-12-03T00:40:04.351Z,17.73
2022-12-03T00:40:16.170Z,19.45
2022-12-03T00:40:28.302Z,19.35
2022-12-03T00:40:40.210Z,17.13
2022-12-03T00:40:52.030Z,16.33
2022-12-03T00:41:04.618Z,18.58
2022-12-03T00:41:16.369Z,18.00
2022-12-03T00:41:28.237Z,17.30
2022-12-03T00:41:40.061Z,15.75
2022-12-03T00:41:51.850Z,15.70
2022-12-03T00:42:03.922Z,14.15
2022-12-03T00:42:15.709Z,14.73
2022-12-03T00:42:27.721Z,15.63
2022-12-03T00:42:39.605Z,16.15
2022-12-03T00:42:51.469Z,16.30
2022-12-03T00:43:03.267Z,16.05
2022-12-03T00:43:15.006Z,14.57
2022-12-03T00:43:26.850Z,15.02
2022-12-03T00:43:39.067Z,15.82
2022-12-03T00:43:50.879Z,15.80
2022-12-03T00:44:02.739Z,16.92
2022-12-03T00:44:14.564Z,16.75
2022-12-03T00:44:26.524Z,16.58
2022-12-03T00:44:38.278Z,15.38
2022-12-03T00:44:50.195Z,15.55
2022-12-03T00:45:02.101Z,15.93
2022-12-03T00:45:14.013Z,16.75
2022-12-03T00:45:26.240Z,17.35
2022-12-03T00:45:38.120Z,16.95
2022-12-03T00:45:50.057Z,16.13
2022-12-03T00:46:01.846Z,16.23
2022-12-03T00:46:18.172Z,16.38
2022-12-03T00:46:32.832Z,18.65
2022-12-03T00:46:44.662Z,17.38
2022-12-03T00:46:56.513Z,15.25
2022-12-03T00:47:08.448Z,14.10
2022-12-03T00:47:20.274Z,14.52
2022-12-03T00:47:32.125Z,16.00
2022-12-03T00:47:43.889Z,16.27
2022-12-03T00:47:55.733Z,15.23
2022-12-03T00:48:07.584Z,15.68
2022-12-03T00:48:19.366Z,15.40
2022-12-03T00:48:31.169Z,14.77
2022-12-03T00:48:42.943Z,16.00
2022-12-03T00:48:54.725Z,15.13
2022-12-03T00:49:06.687Z,15.20
2022-12-03T00:49:18.419Z,14.77
2022-12-03T00:49:31.198Z,15.45
2022-12-03T00:49:43.020Z,14.25
2022-12-03T00:49:54.802Z,13.30
2022-12-03T00:50:08.193Z,14.40
2022-12-03T00:50:19.967Z,15.57
2022-12-03T00:50:31.785Z,16.30
2022-12-03T00:50:43.647Z,15.68
2022-12-03T00:50:55.463Z,15.20
2022-12-03T00:51:07.239Z,14.63
2022-12-03T00:51:19.035Z,15.98
2022-12-03T00:51:30.862Z,14.65
2022-12-03T00:51:42.618Z,13.82
2022-12-03T00:51:54.343Z,14.48
2022-12-03T00:52:06.144Z,15.23
2022-12-03T00:52:18.390Z,15.10
2022-12-03T00:52:30.203Z,14.05
2022-12-03T00:52:42.078Z,13.02
2022-12-03T00:52:53.925Z,13.30
2022-12-03T00:53:05.725Z,14.48
2022-12-03T00:53:17.552Z,14.77
2022-12-03T00:53:29.352Z,14.05
2022-12-03T00:53:41.092Z,12.57
2022-12-03T00:53:52.845Z,12.25
2022-12-03T00:54:04.624Z,13.15
2022-12-03T00:54:16.568Z,13.80
2022-12-03T00:54:31.796Z,13.55
2022-12-03T00:54:44.169Z,12.73
2022-12-03T00:54:56.208Z,14.95
2022-12-03T00:55:10.157Z,15.52
2022-12-03T00:55:22.021Z,14.02
2022-12-03T00:55:33.856Z,13.45
2022-12-03T00:55:45.699Z,15.32
2022-12-03T00:55:57.563Z,15.80
2022-12-03T00:56:09.431Z,15.40
2022-12-03T00:56:21.642Z,14.38
2022-12-03T00:56:33.493Z,13.88
2022-12-03T00:56:45.283Z,13.07
2022-12-03T00:56:57.073Z,13.88
2022-12-03T00:57:08.950Z,14.30
2022-12-03T00:57:20.794Z,13.70
2022-12-03T00:57:32.589Z,12.20
2022-12-03T00:57:44.403Z,13.45
2022-12-03T00:57:56.318Z,14.90
2022-12-03T00:58:10.837Z,14.93
2022-12-03T00:58:24.851Z,13.88
2022-12-03T00:58:36.711Z,13.30
2022-12-03T00:58:48.691Z,13.20
2022-12-03T00:59:00.608Z,13.32
2022-12-03T00:59:12.408Z,13.27
2022-12-03T00:59:24.174Z,12.75
2022-12-03T00:59:36.024Z,12.77
2022-12-03T00:59:47.835Z,11.95
2022-12-03T00:59:59.589Z,12.43
2022-12-03T01:00:12.454Z,11.88
2022-12-03T01:00:25.333Z,11.20
2022-12-03T01:00:37.762Z,10.82
2022-12-03T01:00:49.541Z,11.60
2022-12-03T01:01:01.397Z,11.68
2022-12-03T01:01:13.380Z,11.70
2022-12-03T01:01:25.397Z,11.15
2022-12-03T01:01:37.183Z,11.27
2022-12-03T01:01:49.054Z,10.40
2022-12-03T01:02:00.943Z,10.48
2022-12-03T01:02:12.950Z,10.93
2022-12-03T01:02:24.811Z,11.43
2022-12-03T01:02:36.577Z,12.02
2022-12-03T01:02:48.326Z,12.35
2022-12-03T01:03:00.122Z,12.90
2022-12-03T01:03:11.895Z,13.88
2022-12-03T01:03:23.668Z,12.43
2022-12-03T01:03:35.809Z,13.02
2022-12-03T01:03:47.635Z,13.50
2022-12-03T01:03:59.454Z,12.40
2022-12-03T01:04:11.232Z,11.40
2022-12-03T01:04:23.242Z,11.50
2022-12-03T01:04:35.159Z,11.88
2022-12-03T01:04:47.006Z,13.02
2022-12-03T01:04:59.292Z,13.88
2022-12-03T01:05:11.304Z,13.23
2022-12-03T01:05:23.096Z,14.57
2022-12-03T01:05:34.918Z,14.85
2022-12-03T01:05:46.746Z,13.55
2022-12-03T01:05:58.497Z,12.45
2022-12-03T01:06:10.309Z,12.18
2022-12-03T01:06:22.155Z,13.82
2022-12-03T01:06:34.001Z,13.90
2022-12-03T01:06:45.810Z,14.00
2022-12-03T01:06:57.615Z,13.55
2022-12-03T01:07:09.441Z,14.63
2022-12-03T01:07:21.219Z,13.90
2022-12-03T01:07:33.164Z,13.63
2022-12-03T01:07:45.861Z,12.85
2022-12-03T01:07:57.670Z,12.85
2022-12-03T01:08:09.588Z,14.18
2022-12-03T01:08:21.433Z,15.48
2022-12-03T01:08:33.187Z,14.20
2022-12-03T01:08:44.965Z,13.82
2022-12-03T01:08:56.916Z,13.50
2022-12-03T01:09:08.831Z,14.15
2022-12-03T01:09:20.599Z,13.23
2022-12-03T01:09:32.418Z,12.45
2022-12-03T01:09:44.248Z,12.80
2022-12-03T01:09:55.978Z,12.93
2022-12-03T01:10:08.271Z,12.93
2022-12-03T01:10:20.122Z,13.23
2022-12-03T01:10:31.929Z,13.45
2022-12-03T01:10:43.704Z,13.60
2022-12-03T01:10:55.819Z,13.15
2022-12-03T01:11:27.567Z,12.98
2022-12-03T01:11:39.478Z,12.48
2022-12-03T01:11:51.278Z,11.73
2022-12-03T01:12:03.174Z,11.68
2022-12-03T01:12:15.018Z,13.32
2022-12-03T01:12:26.873Z,14.15
2022-12-03T01:12:38.771Z,14.05
2022-12-03T01:12:50.636Z,13.57
2022-12-03T01:13:02.421Z,14.57
2022-12-03T01:13:14.192Z,15.20
2022-12-03T01:13:25.946Z,15.05
2022-12-03T01:13:37.728Z,13.93
2022-12-03T01:13:49.572Z,13.80
2022-12-03T01:14:01.411Z,14.38
2022-12-03T01:14:15.508Z,13.70
2022-12-03T01:14:27.304Z,13.25
2022-12-03T01:14:39.128Z,14.20
2022-12-03T01:14:51.189Z,14.32
2022-12-03T01:15:03.778Z,13.77
2022-12-03T01:15:15.562Z,13.40
2022-12-03T01:15:27.328Z,12.23
2022-12-03T01:15:39.121Z,13.32
2022-12-03T01:15:50.882Z,14.10
2022-12-03T01:16:02.827Z,14.65
2022-12-03T01:16:14.740Z,12.77
2022-12-03T01:16:26.647Z,12.52
2022-12-03T01:16:38.787Z,11.88
2022-12-03T01:16:50.686Z,12.93
2022-12-03T01:17:02.519Z,13.68
2022-12-03T01:17:14.360Z,13.50
2022-12-03T01:17:26.289Z,12.38
2022-12-03T01:17:38.263Z,11.95
2022-12-03T01:17:50.155Z,13.23
2022-12-03T01:18:01.938Z,13.57
2022-12-03T01:18:14.069Z,13.50
2022-12-03T01:18:25.865Z,12.05
2022-12-03T01:18:37.645Z,12.30
2022-12-03T01:18:52.258Z,12.45
2022-12-03T01:19:04.591Z,13.63
2022-12-03T01:19:17.057Z,13.77
2022-12-03T01:19:31.553Z,12.77
2022-12-03T01:19:48.219Z,12.32
2022-12-03T01:20:01.571Z,12.77
2022-12-03T01:20:13.621Z,12.27
2022-12-03T01:20:25.567Z,12.27
2022-12-03T01:20:38.797Z,13.35
2022-12-03T01:20:50.520Z,13.82
2022-12-03T01:21:02.249Z,13.38
2022-12-03T01:21:14.078Z,13.30
2022-12-03T01:21:25.957Z,13.32
2022-12-03T01:21:37.908Z,14.63
2022-12-03T01:21:50.776Z,14.15
2022-12-03T01:22:02.620Z,12.57
2022-12-03T01:22:14.507Z,12.77
2022-12-03T01:22:26.333Z,13.65
2022-12-03T01:22:38.184Z,14.25
2022-12-03T01:22:49.920Z,13.73
2022-12-03T01:23:02.354Z,12.45
2022-12-03T01:23:14.211Z,11.55
2022-12-03T01:23:25.992Z,11.73
2022-12-03T01:23:37.733Z,11.40
2022-12-03T01:23:49.589Z,11.85
2022-12-03T01:24:01.584Z,13.05
2022-12-03T01:24:13.493Z,12.70
2022-12-03T01:24:25.319Z,12.43
2022-12-03T01:24:37.293Z,12.05
2022-12-03T01:24:49.154Z,12.05
2022-12-03T01:25:00.970Z,12.48
2022-12-03T01:25:12.721Z,12.35
2022-12-03T01:25:24.766Z,13.00
2022-12-03T01:25:36.585Z,13.60
2022-12-03T01:25:48.390Z,12.93
2022-12-03T01:26:00.172Z,12.05
2022-12-03T01:26:11.980Z,12.32
2022-12-03T01:26:25.187Z,12.98
2022-12-03T01:26:37.043Z,14.70
2022-12-03T01:26:48.896Z,15.32
2022-12-03T01:27:00.999Z,15.07
2022-12-03T01:27:12.859Z,14.43
2022-12-03T01:27:24.643Z,13.90
2022-12-03T01:27:36.450Z,13.40
2022-12-03T01:27:48.393Z,14.35
2022-12-03T01:28:00.264Z,13.55
2022-12-03T01:28:12.108Z,13.27
2022-12-03T01:28:23.972Z,12.60
2022-12-03T01:28:35.866Z,13.18
2022-12-03T01:28:47.742Z,13.57
2022-12-03T01:28:59.578Z,13.63
2022-12-03T01:29:11.858Z,13.07
2022-12-03T01:29:24.270Z,12.18
2022-12-03T01:29:36.034Z,12.05
2022-12-03T01:29:47.858Z,12.25
2022-12-03T01:29:59.650Z,12.23
2022-12-03T01:30:12.589Z,11.75
2022-12-03T01:30:24.451Z,12.40
2022-12-03T01:30:56.223Z,12.63
2022-12-03T01:31:27.548Z,14.52
2022-12-03T01:31:57.735Z,12.72
2022-12-03T01:32:19.863Z,13.50
2022-12-03T01:32:31.747Z,14.57
2022-12-03T01:32:43.542Z,15.75
2022-12-03T01:32:55.281Z,13.63
2022-12-03T01:33:07.100Z,12.18
2022-12-03T01:33:18.895Z,12.98
2022-12-03T01:33:30.738Z,14.48
2022-12-03T01:33:42.502Z,14.05
2022-12-03T01:33:54.367Z,12.50
2022-12-03T01:34:06.222Z,13.05
2022-12-03T01:34:18.006Z,14.45
2022-12-03T01:34:29.802Z,13.70
2022-12-03T01:34:41.635Z,13.27
2022-12-03T01:34:54.890Z,12.77
2022-12-03T01:35:07.455Z,13.57
2022-12-03T01:35:19.251Z,14.82
2022-12-03T01:35:31.016Z,14.02
2022-12-03T01:35:42.792Z,12.80
2022-12-03T01:35:54.587Z,13.85
2022-12-03T01:36:06.762Z,13.93
2022-12-03T01:36:18.564Z,12.95
2022-12-03T01:36:30.417Z,11.90
2022-12-03T01:36:42.211Z,12.40
2022-12-03T01:36:54.018Z,12.52
2022-12-03T01:37:05.801Z,12.68
2022-12-03T01:37:18.290Z,11.40
2022-12-03T01:37:30.436Z,11.23
2022-12-03T01:37:42.325Z,11.70
2022-12-03T01:37:54.517Z,13.18
2022-12-03T01:38:06.305Z,13.95
2022-12-03T01:38:18.021Z,14.00
2022-12-03T01:38:29.794Z,13.93
2022-12-03T01:38:41.583Z,11.77
2022-12-03T01:38:53.409Z,12.65
2022-12-03T01:39:05.302Z,12.40
2022-12-03T01:39:17.081Z,12.20
2022-12-03T01:39:28.944Z,12.73
2022-12-03T01:39:41.082Z,12.82
2022-12-03T01:39:53.119Z,12.10
2022-12-03T01:40:06.732Z,12.40
2022-12-03T01:40:19.448Z,12.00
2022-12-03T01:40:31.295Z,12.25
2022-12-03T01:40:43.081Z,12.25
2022-12-03T01:40:54.956Z,14.15
2022-12-03T01:41:11.473Z,13.65
2022-12-03T01:41:23.974Z,12.80
2022-12-03T01:41:35.730Z,14.05
2022-12-03T01:41:48.741Z,13.50
2022-12-03T01:42:00.512Z,13.00
2022-12-03T01:42:36.972Z,13.55
2022-12-03T01:42:48.774Z,13.10
2022-12-03T01:43:00.557Z,13.25
2022-12-03T01:43:12.311Z,13.57
2022-12-03T01:43:24.068Z,13.65
2022-12-03T01:43:35.874Z,14.48
2022-12-03T01:43:47.811Z,14.43
2022-12-03T01:43:59.684Z,14.40
2022-12-03T01:44:23.293Z,14.02
2022-12-03T01:44:35.639Z,14.93
2022-12-03T01:44:48.320Z,15.10
2022-12-03T01:45:00.250Z,13.93
2022-12-03T01:45:22.400Z,13.90
2022-12-03T01:45:34.182Z,14.70
2022-12-03T01:45:45.987Z,13.98
2022-12-03T01:45:57.881Z,14.75
2022-12-03T01:46:12.754Z,13.30
2022-12-03T01:46:28.595Z,14.82
2022-12-03T01:46:41.039Z,14.50
2022-12-03T01:46:53.603Z,13.18
2022-12-03T01:47:07.325Z,14.07
2022-12-03T01:47:20.254Z,15.02
2022-12-03T01:47:36.378Z,13.73
2022-12-03T01:47:48.081Z,13.35
2022-12-03T01:48:00.733Z,12.98
2022-12-03T01:48:15.350Z,12.57
2022-12-03T01:48:37.971Z,13.90
2022-12-03T01:48:50.753Z,14.60
2022-12-03T01:49:02.583Z,13.63
2022-12-03T01:49:19.095Z,14.60
2022-12-03T01:49:50.277Z,16.08
2022-12-03T01:50:17.545Z,12.77
2022-12-03T01:50:32.359Z,13.23
2022-12-03T01:50:44.142Z,13.90
2022-12-03T01:50:55.924Z,13.75
2022-12-03T01:51:07.845Z,12.93
2022-12-03T01:51:19.746Z,12.82
2022-12-03T01:51:31.630Z,12.85
2022-12-03T01:51:43.404Z,13.43
2022-12-03T01:51:55.270Z,13.30
2022-12-03T01:52:19.827Z,14.20
2022-12-03T01:52:36.815Z,13.60
2022-12-03T01:52:48.616Z,12.15
2022-12-03T01:53:01.748Z,12.45
2022-12-03T01:53:16.308Z,12.85
2022-12-03T01:53:28.135Z,12.23
2022-12-03T01:53:40.096Z,11.18
2022-12-03T01:53:51.912Z,11.55
2022-12-03T01:54:03.844Z,12.20
2022-12-03T01:54:22.642Z,12.55
2022-12-03T01:54:40.422Z,12.18
2022-12-03T01:54:58.091Z,12.02
2022-12-03T01:55:18.806Z,12.00
2022-12-03T01:55:30.652Z,12.57
2022-12-03T01:55:48.275Z,12.27
2022-12-03T01:56:00.586Z,11.88
2022-12-03T01:56:14.220Z,11.70
2022-12-03T01:56:26.032Z,11.10
2022-12-03T01:56:37.767Z,10.88
2022-12-03T01:56:49.610Z,10.07
2022-12-03T01:57:01.545Z,9.50
2022-12-03T01:57:26.360Z,8.70
2022-12-03T01:57:46.360Z,10.62
2022-12-03T01:58:00.381Z,10.27
2022-12-03T01:58:15.165Z,9.13
2022-12-03T01:58:28.980Z,9.15
2022-12-03T01:58:40.886Z,10.82
2022-12-03T01:58:52.667Z,11.25
2022-12-03T01:59:04.466Z,12.38
2022-12-03T01:59:22.047Z,12.48
2022-12-03T01:59:36.257Z,11.13
2022-12-03T01:59:48.130Z,10.55
2022-12-03T01:59:59.912Z,11.00
2022-12-03T02:00:16.983Z,11.40
2022-12-03T02:00:29.244Z,11.38
2022-12-03T02:00:41.033Z,10.10
2022-12-03T02:00:52.804Z,9.30
2022-12-03T02:01:10.057Z,9.38
2022-12-03T02:01:21.940Z,10.63
2022-12-03T02:01:33.829Z,11.23
2022-12-03T02:01:47.515Z,11.00
2022-12-03T02:01:59.910Z,10.55
2022-12-03T02:02:21.350Z,10.32
2022-12-03T02:02:33.170Z,11.43
2022-12-03T02:02:45.539Z,13.10
2022-12-03T02:03:02.238Z,13.20
2022-12-03T02:03:23.331Z,11.10
2022-12-03T02:03:35.122Z,11.65
2022-12-03T02:03:47.048Z,9.88
2022-12-03T02:03:58.857Z,9.80
2022-12-03T02:04:16.085Z,10.10
2022-12-03T02:04:28.182Z,10.48
2022-12-03T02:04:40.104Z,10.35
2022-12-03T02:04:53.360Z,9.55
2022-12-03T02:05:40.684Z,9.82
2022-12-03T02:05:52.609Z,12.52
2022-12-03T02:06:04.597Z,12.60
2022-12-03T02:06:19.100Z,11.23
2022-12-03T02:06:30.951Z,9.63
2022-12-03T02:06:43.477Z,10.40
2022-12-03T02:06:55.244Z,10.82
2022-12-03T02:07:23.799Z,9.57
2022-12-03T02:07:35.598Z,11.98
2022-12-03T02:07:47.475Z,12.85
2022-12-03T02:07:59.721Z,10.95
2022-12-03T02:08:31.540Z,9.55
2022-12-03T02:08:44.866Z,10.48
2022-12-03T02:08:59.719Z,9.95
2022-12-03T02:09:12.706Z,8.73
2022-12-03T02:09:24.452Z,9.57
2022-12-03T02:09:36.245Z,9.95
2022-12-03T02:09:48.077Z,8.98
2022-12-03T02:10:01.534Z,7.90
2022-12-03T02:10:14.968Z,8.13
2022-12-03T02:10:32.665Z,9.05
2022-12-03T02:10:44.439Z,9.10
2022-12-03T02:10:57.718Z,9.52
2022-12-03T02:11:21.993Z,9.77
2022-12-03T02:11:36.653Z,9.68
2022-12-03T02:11:49.712Z,8.20
2022-12-03T02:12:01.477Z,8.55
2022-12-03T02:12:14.134Z,9.15
2022-12-03T02:12:36.639Z,9.73
2022-12-03T02:13:03.751Z,9.43
2022-12-03T02:13:15.471Z,11.95
2022-12-03T02:13:27.313Z,11.10
2022-12-03T02:13:39.134Z,10.45
2022-12-03T02:13:52.981Z,10.38
2022-12-03T02:14:09.169Z,11.93
2022-12-03T02:14:21.079Z,12.55
2022-12-03T02:14:32.840Z,11.68
2022-12-03T02:14:44.570Z,11.13
2022-12-03T02:14:56.437Z,10.32
2022-12-03T02:15:08.795Z,10.55
2022-12-03T02:15:20.673Z,10.04
2022-12-03T02:15:32.458Z,10.27
2022-12-03T02:15:44.688Z,12.63
2022-12-03T02:15:56.642Z,12.07
2022-12-03T02:16:08.767Z,11.52
2022-12-03T02:16:20.718Z,10.60
2022-12-03T02:16:32.589Z,10.48
2022-12-03T02:16:45.222Z,10.20
2022-12-03T02:16:57.084Z,11.35
2022-12-03T02:17:08.878Z,10.93
2022-12-03T02:17:20.764Z,9.55
2022-12-03T02:17:32.695Z,9.88
2022-12-03T02:17:44.648Z,11.10
2022-12-03T02:17:56.483Z,11.20
2022-12-03T02:18:08.991Z,10.27
2022-12-03T02:18:20.790Z,10.85
2022-12-03T02:18:32.643Z,10.80
2022-12-03T02:18:44.510Z,10.88
2022-12-03T02:18:57.210Z,11.10
2022-12-03T02:19:19.509Z,10.68
2022-12-03T02:19:31.580Z,10.07
2022-12-03T02:19:43.364Z,9.98
2022-12-03T02:19:55.412Z,9.45
2022-12-03T02:20:09.251Z,9.05
2022-12-03T02:20:21.044Z,10.25
2022-12-03T02:20:35.643Z,10.38
2022-12-03T02:20:58.558Z,10.77
2022-12-03T02:21:29.259Z,10.45
2022-12-03T02:21:52.807Z,11.15
2022-12-03T02:22:32.195Z,13.18
2022-12-03T02:23:34.986Z,13.07
2022-12-03T02:23:59.735Z,12.05
2022-12-03T02:24:43.938Z,11.45
2022-12-03T02:24:59.332Z,12.50
2022-12-03T02:25:25.135Z,12.70
2022-12-03T02:25:37.136Z,11.85
2022-12-03T02:25:48.914Z,12.88
2022-12-03T02:26:00.718Z,12.75
2022-12-03T02:26:12.530Z,11.90
2022-12-03T02:26:24.423Z,12.98
2022-12-03T02:26:36.300Z,14.32
2022-12-03T02:26:48.344Z,13.90
2022-12-03T02:27:00.171Z,12.32
2022-12-03T02:27:11.991Z,14.35
2022-12-03T02:27:23.858Z,14.30
2022-12-03T02:27:35.776Z,12.50
2022-12-03T02:27:47.955Z,10.45
2022-12-03T02:27:59.905Z,10.95
2022-12-03T02:28:11.781Z,13.23
2022-12-03T02:28:23.590Z,13.23
2022-12-03T02:28:35.340Z,11.20
2022-12-03T02:28:47.163Z,11.77
2022-12-03T02:28:58.968Z,12.88
2022-12-03T02:29:10.878Z,12.95
2022-12-03T02:29:23.761Z,13.38
2022-12-03T02:29:35.625Z,11.88
2022-12-03T02:29:47.407Z,11.23
2022-12-03T02:29:59.277Z,11.32
2022-12-03T02:30:11.903Z,10.70
2022-12-03T02:30:25.161Z,11.60
2022-12-03T02:30:37.031Z,12.45
2022-12-03T02:30:48.858Z,12.63
2022-12-03T02:31:00.750Z,12.25
2022-12-03T02:31:12.630Z,11.27
2022-12-03T02:31:24.686Z,10.48
2022-12-03T02:31:36.621Z,10.60
2022-12-03T02:31:48.428Z,11.95
2022-12-03T02:32:00.337Z,12.27
2022-12-03T02:32:12.272Z,12.73
2022-12-03T02:32:24.104Z,12.27
2022-12-03T02:32:35.911Z,11.40
2022-12-03T02:32:48.400Z,10.20
2022-12-03T02:33:00.189Z,10.95
2022-12-03T02:33:11.972Z,11.86
2022-12-03T02:33:23.773Z,13.10
2022-12-03T02:33:36.065Z,13.57
2022-12-03T02:33:47.828Z,12.30
2022-12-03T02:33:59.592Z,11.68
2022-12-03T02:34:11.591Z,10.90
2022-12-03T02:34:37.024Z,10.43
2022-12-03T02:34:49.124Z,10.40
2022-12-03T02:35:00.946Z,10.80
2022-12-03T02:35:18.500Z,10.05
2022-12-03T02:35:34.387Z,9.90
2022-12-03T02:35:46.274Z,10.10
2022-12-03T02:36:03.152Z,9.75
2022-12-03T02:36:15.539Z,9.85
2022-12-03T02:36:27.683Z,10.75
2022-12-03T02:36:39.463Z,11.25
2022-12-03T02:36:51.232Z,11.77
2022-12-03T02:37:03.137Z,12.63
2022-12-03T02:37:18.687Z,12.38
2022-12-03T02:37:35.676Z,12.20
2022-12-03T02:37:50.344Z,12.15
2022-12-03T02:38:14.776Z,11.45
2022-12-03T02:38:27.278Z,11.10
2022-12-03T02:38:39.829Z,11.07
2022-12-03T02:38:51.568Z,12.23
2022-12-03T02:39:04.243Z,12.20
2022-12-03T02:39:16.110Z,11.68
2022-12-03T02:39:27.901Z,12.00
2022-12-03T02:39:43.219Z,13.15
2022-12-03T02:39:56.694Z,12.25
2022-12-03T02:40:11.402Z,11.30
2022-12-03T02:40:24.928Z,11.63
2022-12-03T02:40:36.761Z,12.07
2022-12-03T02:40:50.123Z,11.25
2022-12-03T02:41:06.136Z,11.70
2022-12-03T02:41:38.022Z,12.23
2022-12-03T02:42:09.436Z,9.75
2022-12-03T02:42:36.359Z,11.95
2022-12-03T02:42:48.704Z,12.15
2022-12-03T02:43:02.002Z,12.07
2022-12-03T02:43:14.950Z,12.52
2022-12-03T02:43:26.758Z,12.65
2022-12-03T02:43:38.529Z,12.07
2022-12-03T02:43:50.343Z,10.75
2022-12-03T02:44:03.008Z,10.30
2022-12-03T02:44:14.838Z,9.98
2022-12-03T02:44:26.610Z,10.30
2022-12-03T02:44:38.375Z,11.45
2022-12-03T02:44:50.184Z,12.43
2022-12-03T02:45:12.701Z,13.05
2022-12-03T02:45:34.433Z,12.85
2022-12-03T02:45:52.203Z,15.07
2022-12-03T02:46:04.156Z,11.60
2022-12-03T02:46:15.932Z,10.98
2022-12-03T02:46:27.879Z,10.60
2022-12-03T02:46:39.790Z,11.30
2022-12-03T02:46:51.712Z,13.98
2022-12-03T02:47:03.557Z,13.65
2022-12-03T02:47:15.524Z,12.93
2022-12-03T02:47:27.385Z,12.25
2022-12-03T02:47:46.075Z,13.13
2022-12-03T02:48:09.854Z,13.88
2022-12-03T02:48:34.543Z,13.20
2022-12-03T02:48:46.298Z,12.73
2022-12-03T02:48:58.102Z,10.30
2022-12-03T02:49:09.904Z,11.18